Time;durP1;ratioP1;P1;durP2;ratioP2;P2;SDS_P1;SDS_P2;PMS_P1;PMS_P2;Temp;Humidity;BMP_temperature;BMP_pressure;BME280_temperature;BME280_humidity;BME280_pressure;Samples;Min_cycle;Max_cycle;Signal;HPM_P1;HPM_P2
2020/12/04 00:00:06;;;;;;;0.60;0.60;;;;;;;0.59;78.20;99330.53;5032715;28;20553;-70
2020/12/04 00:02:32;;;;;;;1.00;0.67;;;;;;;0.55;78.49;99334.00;5032563;28;20443;-70
2020/12/04 00:04:58;;;;;;;0.83;0.83;;;;;;;0.49;78.21;99331.34;5032831;28;20473;-70
2020/12/04 00:07:25;;;;;;;0.40;0.40;;;;;;;0.48;78.93;99319.06;5034915;28;20443;-70
2020/12/04 00:09:51;;;;;;;4.00;3.03;;;;;;;0.50;78.15;99324.13;5036177;28;20490;-70
2020/12/04 00:12:18;;;;;;;0.40;0.30;;;;;;;0.47;78.99;99314.00;5036507;28;20434;-70
2020/12/04 00:14:44;;;;;;;3.43;1.17;;;;;;;0.47;78.56;99322.00;5036095;28;20443;-70
2020/12/04 00:17:10;;;;;;;0.60;0.60;;;;;;;0.49;78.94;99317.22;5036357;28;21014;-70
2020/12/04 00:19:36;;;;;;;0.40;0.30;;;;;;;0.47;78.05;99306.81;5036098;28;20474;-70
2020/12/04 00:22:02;;;;;;;0.90;0.90;;;;;;;0.47;78.74;99319.34;5036340;28;20475;-71
2020/12/04 00:24:29;;;;;;;2.00;1.90;;;;;;;0.47;78.88;99311.34;5036214;28;20801;-71
2020/12/04 00:26:55;;;;;;;0.40;0.30;;;;;;;0.45;79.46;99314.28;5036508;28;20435;-70
2020/12/04 00:29:23;;;;;;;0.97;0.87;;;;;;;0.42;79.97;99303.34;5036128;28;20458;-70
2020/12/04 00:31:49;;;;;;;0.80;0.80;;;;;;;0.41;79.56;99297.22;5036131;28;20492;-71
2020/12/04 00:34:15;;;;;;;0.97;0.87;;;;;;;0.42;79.67;99293.50;5036109;28;20498;-70
2020/12/04 00:36:45;;;;;;;1.40;1.30;;;;;;;0.46;79.84;99293.78;5035743;28;20818;-70
2020/12/04 00:39:11;;;;;;;0.40;0.30;;;;;;;0.41;80.24;99296.44;5035926;28;20475;-70
2020/12/04 00:41:37;;;;;;;4.43;0.87;;;;;;;0.44;80.26;99301.22;5035817;28;20483;-70
2020/12/04 00:44:03;;;;;;;31.27;2.00;;;;;;;0.39;80.08;99301.22;5035902;28;20443;-71
2020/12/04 00:46:30;;;;;;;2.47;2.27;;;;;;;0.43;79.75;99295.09;5035222;28;20505;-70
2020/12/04 00:48:57;;;;;;;0.40;0.30;;;;;;;0.45;79.76;99290.31;5035443;28;20459;-71
2020/12/04 00:51:23;;;;;;;0.90;0.90;;;;;;;0.44;79.67;99287.91;5035407;28;20811;-70
2020/12/04 00:53:50;;;;;;;0.97;0.70;;;;;;;0.38;80.45;99280.97;5035455;28;20556;-70
2020/12/04 00:56:16;;;;;;;1.60;0.90;;;;;;;0.35;80.00;99271.66;5035700;28;20868;-70
2020/12/04 00:58:43;;;;;;;0.60;0.60;;;;;;;0.40;80.18;99276.16;5035528;28;20836;-70
2020/12/04 01:01:09;;;;;;;4.73;2.93;;;;;;;0.33;79.63;99273.00;5035452;28;20495;-70
2020/12/04 01:03:36;;;;;;;0.77;0.77;;;;;;;0.35;79.92;99262.88;5035218;28;20435;-70
2020/12/04 01:06:02;;;;;;;2.17;1.90;;;;;;;0.29;79.68;99267.41;5035191;28;20467;-70
2020/12/04 01:08:28;;;;;;;3.00;0.63;;;;;;;0.29;79.95;99269.25;5035373;28;20459;-71
2020/12/04 01:10:56;;;;;;;2.00;1.37;;;;;;;0.32;80.22;99272.19;5035668;28;20470;-70
2020/12/04 01:13:22;;;;;;;0.40;0.30;;;;;;;0.30;79.83;99263.66;5035627;28;20446;-70
2020/12/04 01:15:48;;;;;;;0.97;0.97;;;;;;;0.33;80.24;99265.81;5035325;28;20861;-70
2020/12/04 01:18:14;;;;;;;3.30;1.63;;;;;;;0.34;79.46;99253.28;5035100;28;21172;-71
2020/12/04 01:20:41;;;;;;;0.90;0.90;;;;;;;0.31;80.03;99254.63;5034825;28;20893;-70
2020/12/04 01:23:07;;;;;;;0.40;0.30;;;;;;;0.34;79.93;99246.09;5034890;28;20447;-70
2020/12/04 01:25:33;;;;;;;0.40;0.30;;;;;;;0.32;79.46;99250.91;5035130;28;20856;-70
2020/12/04 01:28:00;;;;;;;1.73;0.52;;;;;;;0.32;79.25;99244.78;5035031;28;20861;-70
2020/12/04 01:30:26;;;;;;;2.70;1.40;;;;;;;0.34;79.82;99239.97;5034714;28;20743;-70
2020/12/04 01:32:52;;;;;;;0.40;0.30;;;;;;;0.35;79.85;99245.00;5035004;28;20494;-70
2020/12/04 01:35:18;;;;;;;0.40;0.40;;;;;;;0.35;80.25;99231.69;5035029;28;20466;-75
2020/12/04 01:37:45;;;;;;;0.40;0.40;;;;;;;0.34;79.99;99234.66;5034578;28;20439;-70
2020/12/04 01:40:11;;;;;;;0.40;0.40;;;;;;;0.27;80.18;99232.25;5034406;28;20906;-72
2020/12/04 01:42:37;;;;;;;1.03;0.77;;;;;;;0.31;80.34;99227.19;5034787;28;20447;-72
2020/12/04 01:45:04;;;;;;;0.70;0.63;;;;;;;0.30;80.43;99237.03;5034487;28;20443;-72
2020/12/04 01:47:30;;;;;;;0.40;0.30;;;;;;;0.26;80.58;99233.31;5034686;28;20439;-72
2020/12/04 01:49:57;;;;;;;0.40;0.30;;;;;;;0.32;80.35;99236.78;5034624;28;20885;-72
2020/12/04 01:52:25;;;;;;;0.70;0.67;;;;;;;0.29;79.92;99218.66;5034301;28;20482;-72
2020/12/04 01:54:53;;;;;;;1.20;1.17;;;;;;;0.28;79.90;99219.75;5034332;28;20439;-72
2020/12/04 01:57:22;;;;;;;1.43;0.60;;;;;;;0.28;80.55;99217.09;5034506;28;20442;-72
2020/12/04 01:59:48;;;;;;;0.43;0.43;;;;;;;0.33;80.31;99214.41;5034312;28;20586;-72
2020/12/04 02:02:18;;;;;;;0.60;0.60;;;;;;;0.34;79.56;99211.47;5034437;28;20817;-72
2020/12/04 02:04:45;;;;;;;0.40;0.30;;;;;;;0.36;79.76;99208.56;5034322;28;20439;-72
2020/12/04 02:07:18;;;;;;;0.40;0.40;;;;;;;0.35;80.15;99207.72;5034330;28;20493;-72
2020/12/04 02:09:48;;;;;;;0.57;0.57;;;;;;;0.34;79.60;99206.16;5034235;28;20467;-72
2020/12/04 02:12:18;;;;;;;0.40;0.30;;;;;;;0.29;80.07;99208.03;5034234;28;20474;-72
2020/12/04 02:14:48;;;;;;;0.70;0.70;;;;;;;0.20;79.99;99207.75;5034111;28;20420;-72
2020/12/04 02:17:14;;;;;;;0.40;0.33;;;;;;;0.18;80.18;99208.03;5034141;28;20794;-72
2020/12/04 02:19:43;;;;;;;1.57;0.97;;;;;;;0.19;80.23;99206.97;5033866;28;20517;-72
2020/12/04 02:22:12;;;;;;;2.70;2.50;;;;;;;0.17;80.73;99198.41;5033952;28;20478;-72
2020/12/04 02:24:40;;;;;;;0.93;0.90;;;;;;;0.18;80.87;99207.25;5033679;28;20867;-73
2020/12/04 02:27:08;;;;;;;0.83;0.57;;;;;;;0.22;80.71;99201.13;5033617;28;20940;-72
2020/12/04 02:29:39;;;;;;;0.73;0.73;;;;;;;0.24;81.07;99190.19;5033335;28;20456;-72
2020/12/04 02:32:09;;;;;;;1.27;1.07;;;;;;;0.21;81.26;99196.03;5033940;28;20838;-72
2020/12/04 02:34:35;;;;;;;0.70;0.70;;;;;;;0.18;81.29;99191.25;5033534;28;20455;-72
2020/12/04 02:37:02;;;;;;;7.63;1.00;;;;;;;0.18;81.12;99185.94;5033830;28;20471;-72
2020/12/04 02:39:29;;;;;;;0.53;0.53;;;;;;;0.18;81.69;99185.94;5033651;28;20513;-72
2020/12/04 02:41:55;;;;;;;0.77;0.73;;;;;;;0.12;81.28;99185.13;5033636;28;20487;-72
2020/12/04 02:44:21;;;;;;;4.40;3.00;;;;;;;0.09;81.56;99176.88;5033727;28;20467;-72
2020/12/04 02:46:47;;;;;;;0.50;0.40;;;;;;;0.11;81.62;99175.53;5033703;28;20236;-72
2020/12/04 02:49:13;;;;;;;8.17;0.90;;;;;;;0.13;82.70;99172.59;5033526;28;20532;-72
2020/12/04 02:51:44;;;;;;;0.50;0.50;;;;;;;0.09;82.98;99177.69;5033256;28;20443;-72
2020/12/04 02:54:10;;;;;;;8.33;2.50;;;;;;;0.02;82.98;99171.81;5033793;28;20443;-72
2020/12/04 02:56:37;;;;;;;0.40;0.30;;;;;;;0.03;83.51;99173.41;5033508;28;20501;-72
2020/12/04 02:59:03;;;;;;;1.20;0.67;;;;;;;0.03;83.75;99164.63;5033395;28;20521;-72
2020/12/04 03:01:29;;;;;;;2.30;2.10;;;;;;;0.09;83.67;99153.72;5033322;28;21024;-72
2020/12/04 03:03:56;;;;;;;0.50;0.50;;;;;;;0.13;84.29;99159.28;5033398;28;20497;-72
2020/12/04 03:06:22;;;;;;;1.13;0.77;;;;;;;0.15;84.84;99157.97;5033039;28;20435;-71
2020/12/04 03:08:49;;;;;;;5.70;1.43;;;;;;;0.19;84.56;99153.72;5033292;28;20964;-71
2020/12/04 03:11:18;;;;;;;0.40;0.30;;;;;;;0.19;84.79;99145.72;5033594;28;20441;-71
2020/12/04 03:13:45;;;;;;;1.30;0.70;;;;;;;0.22;84.94;99139.06;5033280;28;20443;-71
2020/12/04 03:16:11;;;;;;;18.33;2.00;;;;;;;0.24;85.31;99145.72;5032910;28;20443;-71
2020/12/04 03:18:37;;;;;;;1.83;1.73;;;;;;;0.26;84.89;99134.78;5032774;28;21027;-72
2020/12/04 03:21:04;;;;;;;2.22;2.13;;;;;;;0.23;85.15;99130.81;5033149;28;20510;-71
2020/12/04 03:23:30;;;;;;;1.43;0.70;;;;;;;0.25;85.09;99136.66;5033185;28;20240;-71
2020/12/04 03:25:56;;;;;;;0.40;0.30;;;;;;;0.25;85.32;99131.31;5033131;28;20489;-71
2020/12/04 03:28:22;;;;;;;0.40;0.30;;;;;;;0.24;85.48;99127.06;5033096;28;20486;-71
2020/12/04 03:30:49;;;;;;;0.93;0.93;;;;;;;0.29;86.01;99122.81;5032827;28;20431;-71
2020/12/04 03:33:15;;;;;;;9.43;3.53;;;;;;;0.29;85.52;99123.59;5032639;28;20493;-71
2020/12/04 03:35:41;;;;;;;0.40;0.40;;;;;;;0.30;85.93;99125.19;5032757;28;20466;-71
2020/12/04 03:38:08;;;;;;;4.77;1.00;;;;;;;0.27;85.97;99109.78;5033024;28;20520;-71
2020/12/04 03:40:34;;;;;;;2.30;1.97;;;;;;;0.27;85.49;99114.28;5032938;28;20556;-71
2020/12/04 03:43:00;;;;;;;0.50;0.33;;;;;;;0.28;85.57;99113.22;5036599;28;20486;-71
2020/12/04 03:45:26;;;;;;;1.57;0.93;;;;;;;0.18;85.11;99106.06;5036657;28;20474;-71
2020/12/04 03:47:53;;;;;;;0.47;0.40;;;;;;;0.18;85.54;99109.53;5036884;28;20439;-72
2020/12/04 03:50:19;;;;;;;3.27;0.77;;;;;;;0.18;85.65;99106.06;5036919;28;20485;-72
2020/12/04 03:52:45;;;;;;;1.33;1.23;;;;;;;0.14;86.09;99094.38;5036495;28;20492;-72
2020/12/04 03:55:12;;;;;;;0.50;0.50;;;;;;;0.10;86.59;99093.31;5036841;28;20810;-72
2020/12/04 03:57:38;;;;;;;0.40;0.30;;;;;;;0.17;86.51;99096.47;5036719;28;20434;-72
2020/12/04 04:00:05;;;;;;;3.60;2.00;;;;;;;0.20;86.08;99093.28;5036293;28;20516;-72
2020/12/04 04:02:31;;;;;;;0.40;0.40;;;;;;;0.23;86.00;99101.53;5036677;28;20487;-72
2020/12/04 04:04:58;;;;;;;0.40;0.30;;;;;;;0.25;86.35;99095.91;5036369;28;20473;-72
2020/12/04 04:07:24;;;;;;;0.50;0.40;;;;;;;0.21;86.07;99092.19;5036588;28;20496;-72
2020/12/04 04:09:50;;;;;;;0.40;0.30;;;;;;;0.18;86.35;99096.22;5036206;28;20498;-72
2020/12/04 04:12:17;;;;;;;1.63;0.83;;;;;;;0.21;86.98;99087.66;5036246;28;20913;-72
2020/12/04 04:14:43;;;;;;;0.40;0.30;;;;;;;0.27;87.37;99085.00;5036442;28;20524;-72
2020/12/04 04:17:09;;;;;;;0.40;0.30;;;;;;;0.29;87.62;99072.22;5036642;28;20493;-72
2020/12/04 04:19:35;;;;;;;2.30;0.80;;;;;;;0.32;87.62;99069.81;5045082;22;20650;-82
2020/12/04 04:22:02;;;;;;;0.60;0.50;;;;;;;0.34;87.60;99067.66;5037082;28;20488;-82
2020/12/04 04:24:28;;;;;;;0.70;0.60;;;;;;;0.38;87.36;99063.41;5060487;22;20447;-70
2020/12/04 04:26:55;;;;;;;1.33;1.03;;;;;;;0.37;87.72;99056.50;5036288;28;20419;-69
2020/12/04 04:29:21;;;;;;;1.10;0.70;;;;;;;0.41;87.73;99056.75;5035839;28;20552;-68
2020/12/04 04:31:49;;;;;;;0.50;0.50;;;;;;;0.38;87.78;99062.59;5035944;28;20478;-68
2020/12/04 04:34:16;;;;;;;0.50;0.50;;;;;;;0.41;87.66;99067.41;5036228;28;20446;-69
2020/12/04 04:36:42;;;;;;;2.70;1.70;;;;;;;0.41;87.75;99062.88;5035833;28;20443;-69
2020/12/04 04:39:09;;;;;;;0.50;0.40;;;;;;;0.41;87.51;99056.75;5035984;28;20467;-69
2020/12/04 04:41:35;;;;;;;2.03;0.90;;;;;;;0.46;87.92;99054.84;5035942;28;20479;-69
2020/12/04 04:44:01;;;;;;;1.17;1.13;;;;;;;0.42;87.92;99047.69;5036015;28;20438;-69
2020/12/04 04:46:34;;;;;;;2.57;1.17;;;;;;;0.42;87.70;99040.47;5035647;28;20477;-69
2020/12/04 04:49:09;;;;;;;2.00;1.90;;;;;;;0.44;87.67;99038.38;5035825;28;20542;-69
2020/12/04 04:51:38;;;;;;;0.80;0.70;;;;;;;0.44;86.70;99037.53;5035847;28;20506;-69
2020/12/04 04:54:05;;;;;;;1.10;1.10;;;;;;;0.42;87.26;99031.69;5035520;28;20247;-68
2020/12/04 04:56:32;;;;;;;0.40;0.40;;;;;;;0.37;87.65;99024.53;5035689;28;20798;-68
2020/12/04 04:58:58;;;;;;;2.10;1.23;;;;;;;0.35;88.25;99015.22;5035279;28;20486;-69
2020/12/04 05:01:24;;;;;;;0.67;0.50;;;;;;;0.40;88.37;99021.34;5035312;28;20518;-68
2020/12/04 05:03:58;;;;;;;1.00;0.57;;;;;;;0.41;88.15;99014.94;5035302;28;20821;-68
2020/12/04 05:06:34;;;;;;;2.10;2.00;;;;;;;0.38;87.89;99020.00;5035520;28;20481;-68
2020/12/04 05:09:00;;;;;;;0.87;0.80;;;;;;;0.37;88.35;99018.41;5035442;28;20513;-69
2020/12/04 05:11:27;;;;;;;0.40;0.30;;;;;;;0.37;88.09;99029.06;5035480;28;20461;-70
2020/12/04 05:14:13;;;;;;;1.73;0.83;;;;;;;0.34;89.01;99011.75;5035193;28;20960;-69
2020/12/04 05:16:39;;;;;;;1.03;1.03;;;;;;;0.36;88.67;99016.81;5035389;28;20424;-69
2020/12/04 05:19:05;;;;;;;1.00;0.85;;;;;;;0.40;89.02;99017.84;5035259;28;20504;-69
2020/12/04 05:21:32;;;;;;;0.50;0.47;;;;;;;0.44;89.51;99018.91;5035207;28;20256;-69
2020/12/04 05:24:00;;;;;;;0.90;0.90;;;;;;;0.50;89.66;99018.63;5035220;28;20509;-68
2020/12/04 05:26:31;;;;;;;1.27;1.07;;;;;;;0.55;89.49;99009.81;5035027;28;20463;-69
2020/12/04 05:28:58;;;;;;;0.40;0.30;;;;;;;0.58;89.16;99009.25;5035042;28;20463;-69
2020/12/04 05:31:29;;;;;;;0.40;0.30;;;;;;;0.60;89.48;99012.44;5035055;28;20789;-70
2020/12/04 05:33:55;;;;;;;0.40;0.30;;;;;;;0.58;89.63;98992.50;5034764;28;20462;-69
2020/12/04 05:36:24;;;;;;;4.40;1.40;;;;;;;0.56;90.25;99006.06;5034653;28;20937;-69
2020/12/04 05:38:52;;;;;;;0.40;0.30;;;;;;;0.58;89.65;99000.47;5034909;28;20491;-69
2020/12/04 05:41:18;;;;;;;0.90;0.90;;;;;;;0.62;90.11;99010.31;5034863;28;20537;-70
2020/12/04 05:43:44;;;;;;;0.63;0.63;;;;;;;0.67;90.00;99018.28;5034546;28;20948;-69
2020/12/04 05:46:17;;;;;;;1.03;0.83;;;;;;;0.70;89.90;99015.03;5034751;28;20435;-70
2020/12/04 05:48:43;;;;;;;0.70;0.70;;;;;;;0.79;90.05;99011.81;5034367;28;20993;-70
2020/12/04 05:51:13;;;;;;;1.53;1.43;;;;;;;0.86;89.86;99013.09;5034658;28;20447;-69
2020/12/04 05:53:39;;;;;;;1.00;0.50;;;;;;;0.90;89.69;99008.03;5034689;28;20439;-69
2020/12/04 05:56:06;;;;;;;0.87;0.87;;;;;;;0.85;89.17;98997.41;5034672;28;20485;-69
2020/12/04 05:58:32;;;;;;;4.47;2.20;;;;;;;0.85;87.89;99005.38;5034174;28;20876;-69
2020/12/04 06:01:03;;;;;;;3.80;1.73;;;;;;;0.82;88.15;98998.72;5034124;28;20518;-69
2020/12/04 06:03:30;;;;;;;1.63;1.53;;;;;;;0.85;88.98;98986.75;5034078;28;20434;-70
2020/12/04 06:05:59;;;;;;;0.57;0.50;;;;;;;0.84;88.85;98998.44;5034018;28;20435;-71
2020/12/04 06:08:25;;;;;;;0.67;0.57;;;;;;;0.80;88.68;98995.56;5033992;28;20839;-69
2020/12/04 06:10:53;;;;;;;0.77;0.67;;;;;;;0.89;88.76;98987.78;5034310;28;20435;-69
2020/12/04 06:13:19;;;;;;;2.30;1.47;;;;;;;0.92;88.95;98987.19;5034344;28;20485;-69
2020/12/04 06:15:45;;;;;;;0.40;0.30;;;;;;;0.93;89.38;98996.78;5034442;28;20436;-70
2020/12/04 06:18:11;;;;;;;0.50;0.50;;;;;;;0.95;90.23;98992.00;5034209;28;20435;-69
2020/12/04 06:20:44;;;;;;;2.97;2.27;;;;;;;1.01;89.99;98988.22;5033627;28;20463;-69
2020/12/04 06:23:13;;;;;;;0.40;0.33;;;;;;;1.00;89.52;98998.06;5033883;28;20437;-69
2020/12/04 06:26:05;;;;;;;0.43;0.40;;;;;;;1.06;89.02;98979.38;5033749;28;20480;-68
2020/12/04 06:28:37;;;;;;;1.57;0.60;;;;;;;0.99;88.91;98995.69;5034210;28;20423;-68
2020/12/04 06:31:10;;;;;;;1.00;1.00;;;;;;;1.06;89.51;98984.72;5033622;28;20469;-68
2020/12/04 06:33:42;;;;;;;0.40;0.30;;;;;;;1.11;88.79;98985.50;5033810;28;20861;-68
2020/12/04 06:36:11;;;;;;;0.60;0.50;;;;;;;1.11;88.99;98987.38;5033925;28;20426;-68
2020/12/04 06:38:42;;;;;;;0.40;0.30;;;;;;;1.11;88.35;98984.69;5033760;28;20459;-68
2020/12/04 06:41:29;;;;;;;0.50;0.47;;;;;;;1.15;88.57;98988.38;5033406;28;20856;-68
2020/12/04 06:43:58;;;;;;;7.20;2.20;;;;;;;1.14;89.24;98989.44;5033459;28;20416;-68
2020/12/04 06:46:32;;;;;;;0.73;0.50;;;;;;;1.11;89.13;98980.16;5033701;28;20442;-68
2020/12/04 06:49:12;;;;;;;0.70;0.70;;;;;;;1.13;88.42;98970.00;5033593;28;20533;-70
2020/12/04 06:51:40;;;;;;;0.53;0.53;;;;;;;1.15;88.89;98981.19;5033703;28;20423;-68
2020/12/04 06:54:08;;;;;;;0.70;0.63;;;;;;;1.15;89.42;98985.69;5033587;28;20444;-68
2020/12/04 06:56:35;;;;;;;0.77;0.77;;;;;;;1.20;89.63;98989.16;5033199;28;20443;-71
2020/12/04 06:59:01;;;;;;;1.17;0.90;;;;;;;1.25;90.05;98985.66;5033458;28;20542;-67
2020/12/04 07:01:27;;;;;;;1.57;1.47;;;;;;;1.25;90.03;98986.44;5033389;28;20479;-69
2020/12/04 07:03:57;;;;;;;0.40;0.30;;;;;;;1.23;90.38;98983.25;5033507;28;20925;-70
2020/12/04 07:06:24;;;;;;;1.00;0.60;;;;;;;1.25;90.44;98991.78;5033135;28;20494;-70
2020/12/04 07:09:02;;;;;;;0.40;0.30;;;;;;;1.32;90.51;99001.31;5033301;28;20843;-69
2020/12/04 07:11:29;;;;;;;1.33;1.23;;;;;;;1.31;90.84;99008.53;5033047;28;20428;-70
2020/12/04 07:13:55;;;;;;;1.10;1.00;;;;;;;1.35;90.36;99006.09;5033344;28;20439;-70
2020/12/04 07:16:22;;;;;;;2.00;1.80;;;;;;;1.33;90.61;99016.22;5033096;28;20439;-70
2020/12/04 07:18:52;;;;;;;3.13;0.83;;;;;;;1.38;90.63;99011.69;5033165;28;20498;-68
2020/12/04 07:21:19;;;;;;;0.40;0.30;;;;;;;1.47;90.35;98995.88;5033273;28;20467;-69
2020/12/04 07:23:45;;;;;;;0.40;0.30;;;;;;;1.40;90.94;99004.19;5032921;28;20446;-69
2020/12/04 07:26:19;;;;;;;0.63;0.63;;;;;;;1.50;91.03;98997.97;5033050;28;20455;-68
2020/12/04 07:28:46;;;;;;;0.60;0.60;;;;;;;1.49;90.79;98994.50;5033332;28;20467;-69
2020/12/04 07:31:15;;;;;;;0.40;0.30;;;;;;;1.55;90.65;98994.44;5032847;28;20915;-69
2020/12/04 07:33:57;;;;;;;0.67;0.50;;;;;;;1.58;89.88;98989.34;5033086;28;20448;-69
2020/12/04 07:36:24;;;;;;;0.70;0.70;;;;;;;1.58;90.61;98988.56;5033102;28;20423;-69
2020/12/04 07:38:54;;;;;;;0.87;0.87;;;;;;;1.63;90.66;98989.28;5032913;28;20462;-69
2020/12/04 07:41:27;;;;;;;4.77;2.10;;;;;;;1.69;90.75;98990.84;5023276;28;20472;-68
2020/12/04 07:44:01;;;;;;;1.00;0.93;;;;;;;1.75;90.46;98989.72;5013005;28;20443;-69
2020/12/04 07:46:28;;;;;;;0.87;0.87;;;;;;;1.82;90.20;98994.75;5013548;28;20445;-71
2020/12/04 07:49:03;;;;;;;0.40;0.40;;;;;;;1.84;90.29;99007.78;5012916;28;20997;-69
2020/12/04 07:51:32;;;;;;;1.07;1.07;;;;;;;1.80;89.63;99012.09;5013204;28;20448;-69
2020/12/04 07:53:59;;;;;;;1.70;1.60;;;;;;;1.82;89.95;99009.97;5013340;28;20444;-69
2020/12/04 07:56:27;;;;;;;4.20;2.63;;;;;;;1.83;89.69;99019.56;5013293;28;20444;-68
2020/12/04 07:58:59;;;;;;;0.40;0.40;;;;;;;1.92;89.67;99015.19;5012944;28;20985;-69
2020/12/04 08:01:26;;;;;;;1.10;0.70;;;;;;;2.01;89.27;99016.16;5013241;28;20472;-67
2020/12/04 08:03:54;;;;;;;3.40;2.93;;;;;;;2.03;89.59;99012.13;5013601;28;20444;-68
2020/12/04 08:06:25;;;;;;;0.40;0.30;;;;;;;2.10;89.73;99003.78;5013135;28;20455;-68
2020/12/04 08:09:09;;;;;;;7.67;2.80;;;;;;;2.22;89.39;99011.41;5013095;28;20836;-69
2020/12/04 08:11:48;;;;;;;1.20;1.10;;;;;;;2.26;89.24;99004.41;5013068;28;20537;-68
2020/12/04 08:14:16;;;;;;;0.50;0.50;;;;;;;2.28;89.60;98989.69;5013155;28;20458;-68
2020/12/04 08:16:42;;;;;;;0.93;0.57;;;;;;;2.31;89.68;98992.88;5013135;28;20436;-68
2020/12/04 08:19:12;;;;;;;1.57;1.40;;;;;;;2.37;89.79;99005.06;5012979;28;20514;-68
2020/12/04 08:21:57;;;;;;;0.40;0.30;;;;;;;2.44;89.66;99002.88;5012973;28;20492;-69
2020/12/04 08:24:24;;;;;;;0.80;0.67;;;;;;;2.50;89.69;98999.03;5012925;28;20427;-69
2020/12/04 08:27:00;;;;;;;0.60;0.40;;;;;;;2.62;89.51;98986.06;5012770;28;20437;-68
2020/12/04 08:29:26;;;;;;;1.37;1.27;;;;;;;2.70;89.06;98985.41;5016133;28;20466;-68
2020/12/04 08:32:04;;;;;;;1.20;1.07;;;;;;;2.80;89.06;98989.03;5016618;28;20454;-68
2020/12/04 08:34:30;;;;;;;0.50;0.50;;;;;;;2.90;88.54;98984.31;5016516;28;20794;-69
2020/12/04 08:36:58;;;;;;;0.80;0.80;;;;;;;2.98;88.34;98989.03;5016701;28;20443;-68
2020/12/04 08:39:37;;;;;;;0.77;0.70;;;;;;;3.04;87.92;98997.75;5016675;28;20481;-68
2020/12/04 08:42:22;;;;;;;1.93;0.90;;;;;;;3.09;87.89;99005.69;5016486;28;20471;-68
2020/12/04 08:45:00;;;;;;;0.97;0.60;;;;;;;3.03;88.15;98994.28;5016011;28;20420;-68
2020/12/04 08:47:32;;;;;;;2.20;1.17;;;;;;;3.01;88.07;99009.84;5015905;28;20435;-69
2020/12/04 08:50:05;;;;;;;1.77;1.50;;;;;;;3.06;88.14;99006.28;5016089;28;20475;-68
2020/12/04 08:52:35;;;;;;;4.40;1.37;;;;;;;3.25;87.41;99004.38;5015893;28;20929;-68
2020/12/04 08:55:06;;;;;;;0.77;0.73;;;;;;;3.39;87.15;99006.31;5016059;28;20420;-70
2020/12/04 08:57:33;;;;;;;4.83;1.30;;;;;;;3.41;86.27;99004.13;5015991;28;20482;-72
2020/12/04 08:59:59;;;;;;;1.70;1.20;;;;;;;3.50;86.12;98997.84;5015632;28;20984;-72
2020/12/04 09:02:25;;;;;;;0.43;0.33;;;;;;;3.61;85.77;98993.09;5015559;28;20515;-71
2020/12/04 09:04:52;;;;;;;1.07;0.97;;;;;;;3.62;86.01;99007.28;5015886;28;20940;-71
2020/12/04 09:07:18;;;;;;;1.27;1.17;;;;;;;3.63;85.60;98988.25;5015801;28;20475;-71
2020/12/04 09:09:44;;;;;;;0.40;0.30;;;;;;;3.68;86.01;98993.53;5015269;28;20464;-71
2020/12/04 09:12:10;;;;;;;1.03;1.03;;;;;;;3.77;85.27;98994.44;5015336;28;20467;-71
2020/12/04 09:14:37;;;;;;;0.60;0.60;;;;;;;3.89;85.21;98990.47;5015268;28;20478;-71
2020/12/04 09:17:03;;;;;;;0.40;0.37;;;;;;;4.03;84.65;98994.75;5015647;28;20440;-71
2020/12/04 09:19:29;;;;;;;1.37;1.27;;;;;;;3.99;84.70;98988.41;5015477;28;20491;-68
2020/12/04 09:21:56;;;;;;;6.30;1.30;;;;;;;4.06;84.42;99004.06;5015355;28;20480;-68
2020/12/04 09:24:22;;;;;;;21.83;1.57;;;;;;;4.01;84.39;98998.81;5015352;28;20821;-68
2020/12/04 09:26:48;;;;;;;1.00;0.70;;;;;;;4.11;84.09;98998.59;5015134;28;20432;-68
2020/12/04 09:29:14;;;;;;;2.13;0.70;;;;;;;4.06;84.27;98988.00;5015018;28;20472;-67
2020/12/04 09:31:41;;;;;;;2.00;1.10;;;;;;;4.18;84.03;98977.59;5014994;28;20499;-68
2020/12/04 09:34:07;;;;;;;2.00;1.90;;;;;;;4.24;83.53;98971.03;5014883;28;20475;-68
2020/12/04 09:36:34;;;;;;;0.50;0.33;;;;;;;4.32;83.62;98966.84;5014914;28;20440;-68
2020/12/04 09:39:00;;;;;;;1.03;0.53;;;;;;;4.41;83.23;98966.94;5014764;28;20505;-68
2020/12/04 09:41:26;;;;;;;1.37;0.83;;;;;;;4.42;83.10;98977.34;5015029;28;20483;-67
2020/12/04 09:43:52;;;;;;;1.50;1.40;;;;;;;4.40;82.58;98976.88;5015086;28;20473;-68
2020/12/04 09:46:18;;;;;;;1.23;1.13;;;;;;;4.29;82.60;98975.47;5015189;28;20498;-68
2020/12/04 09:48:45;;;;;;;1.67;1.20;;;;;;;4.19;82.93;98975.69;5014629;28;20511;-69
2020/12/04 09:51:11;;;;;;;0.40;0.40;;;;;;;4.13;83.39;98977.69;5015113;28;20527;-68
2020/12/04 09:53:37;;;;;;;0.70;0.60;;;;;;;4.20;83.07;98975.38;5014594;28;20941;-69
2020/12/04 09:56:04;;;;;;;1.33;1.23;;;;;;;4.20;83.05;98972.72;5014874;28;20826;-68
2020/12/04 09:58:30;;;;;;;1.90;1.37;;;;;;;4.25;83.18;98972.63;5014500;28;20447;-67
2020/12/04 10:00:56;;;;;;;1.60;1.50;;;;;;;4.28;83.57;98958.63;5014416;28;21003;-68
2020/12/04 10:03:22;;;;;;;3.13;1.20;;;;;;;4.37;83.65;98957.91;5014436;28;20804;-68
2020/12/04 10:05:49;;;;;;;0.60;0.50;;;;;;;4.55;83.07;98967.72;5014412;28;20869;-67
2020/12/04 10:08:15;;;;;;;1.40;1.07;;;;;;;4.53;82.57;98964.53;5014376;28;20471;-67
2020/12/04 10:10:41;;;;;;;7.20;1.27;;;;;;;4.56;82.47;98972.00;5014403;28;20440;-67
2020/12/04 10:13:09;;;;;;;0.40;0.40;;;;;;;4.56;81.57;98977.38;5014440;28;20871;-69
2020/12/04 10:15:35;;;;;;;0.70;0.50;;;;;;;4.54;82.08;98969.59;5014720;28;20530;-68
2020/12/04 10:18:02;;;;;;;1.63;1.37;;;;;;;4.47;81.29;98977.28;5031722;28;20509;-68
2020/12/04 10:20:28;;;;;;;1.30;1.20;;;;;;;4.43;81.54;98972.81;5033875;28;20471;-68
2020/12/04 10:25:23;;;;;;;0.60;0.50;;;;;;;4.40;82.46;98962.69;5032403;28;20999;-72
2020/12/04 10:27:49;;;;;;;0.40;0.40;;;;;;;4.51;82.45;98969.41;5033752;28;20439;-72
2020/12/04 10:30:15;;;;;;;0.83;0.83;;;;;;;4.59;81.45;98967.91;5033808;28;20462;-72
2020/12/04 10:32:41;;;;;;;0.50;0.40;;;;;;;4.55;81.58;98962.34;5033661;28;20435;-72
2020/12/04 10:35:08;;;;;;;0.93;0.83;;;;;;;4.54;81.93;98961.56;5033566;28;21026;-71
2020/12/04 10:37:34;;;;;;;1.17;0.70;;;;;;;4.57;81.72;98965.53;5033843;28;20866;-71
2020/12/04 10:40:00;;;;;;;2.97;1.17;;;;;;;4.61;82.06;98955.78;5033514;28;21022;-71
2020/12/04 10:42:27;;;;;;;1.53;1.20;;;;;;;4.67;82.08;98956.47;5033721;28;20518;-71
2020/12/04 10:44:53;;;;;;;0.40;0.30;;;;;;;4.72;81.92;98954.47;5033339;28;20979;-72
2020/12/04 10:47:19;;;;;;;0.97;0.97;;;;;;;4.68;81.82;98958.84;5033425;28;20951;-71
2020/12/04 10:49:45;;;;;;;0.63;0.50;;;;;;;4.71;81.57;98960.13;5033386;28;20517;-71
2020/12/04 10:52:12;;;;;;;0.50;0.40;;;;;;;4.70;81.97;98962.03;5033190;28;20469;-72
2020/12/04 10:54:38;;;;;;;2.20;1.20;;;;;;;4.73;81.42;98964.09;5033402;28;21041;-72
2020/12/04 10:57:04;;;;;;;0.60;0.60;;;;;;;4.84;81.48;98962.00;5033531;28;20443;-72
2020/12/04 10:59:31;;;;;;;2.40;2.30;;;;;;;4.83;81.48;98967.66;5033534;28;20436;-72
2020/12/04 11:02:01;;;;;;;2.13;1.10;;;;;;;4.81;81.56;98973.31;5033365;28;20555;-71
2020/12/04 11:07:12;;;;;;;0.47;0.33;;;;;;;4.87;81.76;98955.22;5033195;28;20467;-71
2020/12/04 11:09:38;;;;;;;2.77;0.93;;;;;;;4.91;81.88;98964.25;5033312;28;20505;-72
2020/12/04 11:12:05;;;;;;;0.40;0.30;;;;;;;4.93;81.57;98948.66;5033304;28;20435;-72
2020/12/04 11:14:32;;;;;;;0.90;0.70;;;;;;;5.01;81.51;98947.94;5033248;28;20516;-72
2020/12/04 11:16:58;;;;;;;1.23;0.67;;;;;;;5.08;80.87;98959.00;5033345;28;20443;-71
2020/12/04 11:19:24;;;;;;;1.20;1.20;;;;;;;5.09;81.08;98965.97;5033245;28;20493;-71
2020/12/04 11:21:50;;;;;;;0.97;0.83;;;;;;;5.11;80.70;98971.81;5032907;28;20549;-72
2020/12/04 11:24:16;;;;;;;0.80;0.60;;;;;;;5.01;81.24;98964.81;5032854;28;20996;-72
2020/12/04 11:26:42;;;;;;;3.13;1.10;;;;;;;5.05;81.27;98973.06;5033158;28;20439;-73
2020/12/04 11:29:09;;;;;;;2.10;0.90;;;;;;;5.10;81.00;98974.81;5032927;28;20427;-72
2020/12/04 11:31:36;;;;;;;1.80;1.70;;;;;;;5.10;81.44;98967.56;5033015;28;20450;-72
2020/12/04 11:34:02;;;;;;;0.50;0.50;;;;;;;5.11;81.54;98971.81;5033039;28;20517;-71
2020/12/04 11:36:28;;;;;;;2.37;2.00;;;;;;;5.20;81.10;98961.94;5033015;28;20450;-72
2020/12/04 11:38:54;;;;;;;4.40;0.87;;;;;;;5.26;79.64;98959.91;5033119;28;20466;-72
2020/12/04 11:41:20;;;;;;;1.67;1.30;;;;;;;5.32;79.40;98956.03;5032679;28;20443;-71
2020/12/04 11:43:47;;;;;;;1.50;1.40;;;;;;;5.41;79.45;98970.31;5032994;28;20467;-71
2020/12/04 11:46:13;;;;;;;4.83;1.10;;;;;;;5.44;79.53;98977.72;5033052;28;20516;-71
2020/12/04 11:48:40;;;;;;;0.40;0.30;;;;;;;5.61;79.29;98971.66;5032945;28;20489;-71